sensor_id;sensor_type;location;lat;lon;timestamp;P1;durP1;ratioP1;P2;durP2;ratioP2
11427;SDS011;5770;44.504;11.346;2022-12-24T00:01:47;80.15;;;54.33;;
11427;SDS011;5770;44.504;11.346;2022-12-24T00:04:14;83.55;;;55.20;;
11427;SDS011;5770;44.504;11.346;2022-12-24T00:06:42;84.15;;;55.00;;
11427;SDS011;5770;44.504;11.346;2022-12-24T00:09:10;83.47;;;53.97;;
11427;SDS011;5770;44.504;11.346;2022-12-24T00:11:37;79.63;;;54.10;;
11427;SDS011;5770;44.504;11.346;2022-12-24T00:14:04;76.93;;;54.55;;
11427;SDS011;5770;44.504;11.346;2022-12-24T00:16:31;75.50;;;53.75;;
11427;SDS011;5770;44.504;11.346;2022-12-24T00:18:58;76.82;;;52.90;;
11427;SDS011;5770;44.504;11.346;2022-12-24T00:21:26;80.22;;;53.78;;
11427;SDS011;5770;44.504;11.346;2022-12-24T00:23:54;76.68;;;53.47;;
11427;SDS011;5770;44.504;11.346;2022-12-24T00:26:21;78.13;;;54.10;;
11427;SDS011;5770;44.504;11.346;2022-12-24T00:28:48;75.85;;;52.53;;
11427;SDS011;5770;44.504;11.346;2022-12-24T00:31:16;76.47;;;53.90;;
11427;SDS011;5770;44.504;11.346;2022-12-24T00:33:44;79.75;;;53.13;;
11427;SDS011;5770;44.504;11.346;2022-12-24T00:36:12;73.43;;;51.80;;
11427;SDS011;5770;44.504;11.346;2022-12-24T00:38:39;76.50;;;52.95;;
11427;SDS011;5770;44.504;11.346;2022-12-24T00:41:10;71.88;;;51.67;;
11427;SDS011;5770;44.504;11.346;2022-12-24T00:43:49;65.35;;;51.17;;
11427;SDS011;5770;44.504;11.346;2022-12-24T00:46:17;65.70;;;51.75;;
11427;SDS011;5770;44.504;11.346;2022-12-24T00:48:44;66.32;;;49.75;;
11427;SDS011;5770;44.504;11.346;2022-12-24T00:51:11;65.38;;;50.83;;
11427;SDS011;5770;44.504;11.346;2022-12-24T00:53:38;60.10;;;49.30;;
11427;SDS011;5770;44.504;11.346;2022-12-24T00:56:07;60.75;;;50.08;;
11427;SDS011;5770;44.504;11.346;2022-12-24T00:58:36;61.38;;;49.83;;
11427;SDS011;5770;44.504;11.346;2022-12-24T01:01:04;65.38;;;51.47;;
11427;SDS011;5770;44.504;11.346;2022-12-24T01:03:32;59.55;;;49.83;;
11427;SDS011;5770;44.504;11.346;2022-12-24T01:06:02;67.63;;;51.40;;
11427;SDS011;5770;44.504;11.346;2022-12-24T01:08:29;61.55;;;49.63;;
11427;SDS011;5770;44.504;11.346;2022-12-24T01:10:56;62.25;;;51.90;;
11427;SDS011;5770;44.504;11.346;2022-12-24T01:13:25;64.82;;;51.80;;
11427;SDS011;5770;44.504;11.346;2022-12-24T01:15:52;62.40;;;51.45;;
11427;SDS011;5770;44.504;11.346;2022-12-24T01:18:22;58.55;;;49.67;;
11427;SDS011;5770;44.504;11.346;2022-12-24T01:20:54;65.40;;;51.75;;
11427;SDS011;5770;44.504;11.346;2022-12-24T01:23:22;63.15;;;50.58;;
11427;SDS011;5770;44.504;11.346;2022-12-24T01:25:49;62.72;;;51.20;;
11427;SDS011;5770;44.504;11.346;2022-12-24T01:28:17;62.70;;;51.45;;
11427;SDS011;5770;44.504;11.346;2022-12-24T01:30:45;59.28;;;50.75;;
11427;SDS011;5770;44.504;11.346;2022-12-24T01:33:13;62.30;;;52.22;;
11427;SDS011;5770;44.504;11.346;2022-12-24T01:35:40;60.67;;;50.33;;
11427;SDS011;5770;44.504;11.346;2022-12-24T01:38:08;64.57;;;51.40;;
11427;SDS011;5770;44.504;11.346;2022-12-24T01:40:41;64.45;;;51.90;;
11427;SDS011;5770;44.504;11.346;2022-12-24T01:43:26;63.28;;;51.33;;
11427;SDS011;5770;44.504;11.346;2022-12-24T01:45:56;62.00;;;52.17;;
11427;SDS011;5770;44.504;11.346;2022-12-24T01:48:29;63.25;;;51.33;;
11427;SDS011;5770;44.504;11.346;2022-12-24T01:51:00;65.35;;;52.55;;
11427;SDS011;5770;44.504;11.346;2022-12-24T01:53:31;64.18;;;51.60;;
11427;SDS011;5770;44.504;11.346;2022-12-24T01:55:59;64.10;;;52.35;;
11427;SDS011;5770;44.504;11.346;2022-12-24T01:58:27;60.60;;;52.45;;
11427;SDS011;5770;44.504;11.346;2022-12-24T02:00:56;65.70;;;52.78;;
11427;SDS011;5770;44.504;11.346;2022-12-24T02:03:23;69.82;;;53.10;;
11427;SDS011;5770;44.504;11.346;2022-12-24T02:05:51;63.42;;;52.88;;
11427;SDS011;5770;44.504;11.346;2022-12-24T02:08:20;68.18;;;52.95;;
11427;SDS011;5770;44.504;11.346;2022-12-24T02:10:48;64.45;;;52.20;;
11427;SDS011;5770;44.504;11.346;2022-12-24T02:13:16;63.33;;;52.30;;
11427;SDS011;5770;44.504;11.346;2022-12-24T02:15:50;65.80;;;53.28;;
11427;SDS011;5770;44.504;11.346;2022-12-24T02:18:22;63.22;;;52.38;;
11427;SDS011;5770;44.504;11.346;2022-12-24T02:21:00;64.20;;;51.25;;
11427;SDS011;5770;44.504;11.346;2022-12-24T02:24:01;65.53;;;51.53;;
11427;SDS011;5770;44.504;11.346;2022-12-24T02:27:06;57.08;;;49.65;;
11427;SDS011;5770;44.504;11.346;2022-12-24T02:29:51;61.67;;;50.72;;
11427;SDS011;5770;44.504;11.346;2022-12-24T02:32:23;62.35;;;51.85;;
11427;SDS011;5770;44.504;11.346;2022-12-24T02:34:55;64.03;;;51.17;;
11427;SDS011;5770;44.504;11.346;2022-12-24T02:37:27;63.53;;;51.67;;
11427;SDS011;5770;44.504;11.346;2022-12-24T02:39:58;64.13;;;50.72;;
11427;SDS011;5770;44.504;11.346;2022-12-24T02:42:28;61.28;;;51.45;;
11427;SDS011;5770;44.504;11.346;2022-12-24T02:45:05;66.82;;;52.13;;
11427;SDS011;5770;44.504;11.346;2022-12-24T02:47:34;64.15;;;51.83;;
11427;SDS011;5770;44.504;11.346;2022-12-24T02:50:03;69.22;;;54.33;;
11427;SDS011;5770;44.504;11.346;2022-12-24T02:52:34;65.00;;;53.15;;
11427;SDS011;5770;44.504;11.346;2022-12-24T02:55:03;65.35;;;52.97;;
11427;SDS011;5770;44.504;11.346;2022-12-24T02:57:37;65.80;;;52.88;;
11427;SDS011;5770;44.504;11.346;2022-12-24T03:00:34;68.07;;;53.05;;
11427;SDS011;5770;44.504;11.346;2022-12-24T03:03:25;63.67;;;53.40;;
11427;SDS011;5770;44.504;11.346;2022-12-24T03:06:00;69.30;;;54.70;;
11427;SDS011;5770;44.504;11.346;2022-12-24T03:08:37;64.88;;;52.78;;
11427;SDS011;5770;44.504;11.346;2022-12-24T03:11:10;65.45;;;52.35;;
11427;SDS011;5770;44.504;11.346;2022-12-24T03:13:38;67.60;;;53.78;;
11427;SDS011;5770;44.504;11.346;2022-12-24T03:16:08;70.00;;;56.30;;
11427;SDS011;5770;44.504;11.346;2022-12-24T03:18:36;71.18;;;52.60;;
11427;SDS011;5770;44.504;11.346;2022-12-24T03:21:05;70.90;;;53.67;;
11427;SDS011;5770;44.504;11.346;2022-12-24T03:23:37;68.57;;;55.45;;
11427;SDS011;5770;44.504;11.346;2022-12-24T03:26:05;68.75;;;54.83;;
11427;SDS011;5770;44.504;11.346;2022-12-24T03:28:33;67.47;;;51.67;;
11427;SDS011;5770;44.504;11.346;2022-12-24T03:31:03;70.07;;;52.03;;
11427;SDS011;5770;44.504;11.346;2022-12-24T03:33:32;65.63;;;52.30;;
11427;SDS011;5770;44.504;11.346;2022-12-24T03:36:00;66.00;;;53.28;;
11427;SDS011;5770;44.504;11.346;2022-12-24T03:38:27;66.07;;;53.75;;
11427;SDS011;5770;44.504;11.346;2022-12-24T03:40:55;67.95;;;53.60;;
11427;SDS011;5770;44.504;11.346;2022-12-24T03:43:22;69.07;;;52.78;;
11427;SDS011;5770;44.504;11.346;2022-12-24T03:45:49;67.35;;;53.08;;
11427;SDS011;5770;44.504;11.346;2022-12-24T03:48:17;67.47;;;52.63;;
11427;SDS011;5770;44.504;11.346;2022-12-24T03:50:45;63.42;;;50.95;;
11427;SDS011;5770;44.504;11.346;2022-12-24T03:53:16;70.25;;;52.25;;
11427;SDS011;5770;44.504;11.346;2022-12-24T03:55:44;62.70;;;50.80;;
11427;SDS011;5770;44.504;11.346;2022-12-24T03:58:11;67.00;;;50.85;;
11427;SDS011;5770;44.504;11.346;2022-12-24T04:00:38;69.32;;;53.63;;
11427;SDS011;5770;44.504;11.346;2022-12-24T04:03:06;67.72;;;52.15;;
11427;SDS011;5770;44.504;11.346;2022-12-24T04:05:33;68.97;;;53.25;;
11427;SDS011;5770;44.504;11.346;2022-12-24T04:08:02;68.78;;;52.67;;
11427;SDS011;5770;44.504;11.346;2022-12-24T04:10:29;74.05;;;54.55;;
11427;SDS011;5770;44.504;11.346;2022-12-24T04:12:56;66.88;;;52.45;;
11427;SDS011;5770;44.504;11.346;2022-12-24T04:15:24;68.32;;;52.65;;
11427;SDS011;5770;44.504;11.346;2022-12-24T04:17:54;67.80;;;52.70;;
11427;SDS011;5770;44.504;11.346;2022-12-24T04:20:21;76.03;;;53.28;;
11427;SDS011;5770;44.504;11.346;2022-12-24T04:22:48;70.25;;;53.03;;
11427;SDS011;5770;44.504;11.346;2022-12-24T04:25:16;72.65;;;54.00;;
11427;SDS011;5770;44.504;11.346;2022-12-24T04:27:44;71.53;;;53.28;;
11427;SDS011;5770;44.504;11.346;2022-12-24T04:30:12;70.55;;;53.83;;
11427;SDS011;5770;44.504;11.346;2022-12-24T04:32:39;68.28;;;53.63;;
11427;SDS011;5770;44.504;11.346;2022-12-24T04:35:07;69.45;;;53.85;;
11427;SDS011;5770;44.504;11.346;2022-12-24T04:37:35;62.75;;;52.50;;
11427;SDS011;5770;44.504;11.346;2022-12-24T04:40:02;73.60;;;54.28;;
11427;SDS011;5770;44.504;11.346;2022-12-24T04:42:31;70.88;;;52.80;;
11427;SDS011;5770;44.504;11.346;2022-12-24T04:44:58;65.82;;;51.25;;
11427;SDS011;5770;44.504;11.346;2022-12-24T04:47:25;67.80;;;51.42;;
11427;SDS011;5770;44.504;11.346;2022-12-24T04:49:52;62.17;;;50.53;;
11427;SDS011;5770;44.504;11.346;2022-12-24T04:52:19;70.47;;;53.83;;
11427;SDS011;5770;44.504;11.346;2022-12-24T04:54:49;70.45;;;53.75;;
11427;SDS011;5770;44.504;11.346;2022-12-24T04:57:16;72.22;;;54.85;;
11427;SDS011;5770;44.504;11.346;2022-12-24T04:59:45;68.75;;;54.90;;
11427;SDS011;5770;44.504;11.346;2022-12-24T05:02:12;71.55;;;52.53;;
11427;SDS011;5770;44.504;11.346;2022-12-24T05:04:39;68.78;;;52.38;;
11427;SDS011;5770;44.504;11.346;2022-12-24T05:07:07;71.15;;;54.13;;
11427;SDS011;5770;44.504;11.346;2022-12-24T05:09:34;71.32;;;52.72;;
11427;SDS011;5770;44.504;11.346;2022-12-24T05:12:01;65.38;;;54.40;;
11427;SDS011;5770;44.504;11.346;2022-12-24T05:14:29;71.38;;;54.63;;
11427;SDS011;5770;44.504;11.346;2022-12-24T05:16:57;68.55;;;52.85;;
11427;SDS011;5770;44.504;11.346;2022-12-24T05:19:24;69.07;;;52.88;;
11427;SDS011;5770;44.504;11.346;2022-12-24T05:21:52;68.22;;;53.10;;
11427;SDS011;5770;44.504;11.346;2022-12-24T05:24:32;68.28;;;53.47;;
11427;SDS011;5770;44.504;11.346;2022-12-24T05:27:17;67.93;;;53.40;;
11427;SDS011;5770;44.504;11.346;2022-12-24T05:29:44;71.05;;;52.83;;
11427;SDS011;5770;44.504;11.346;2022-12-24T05:32:13;72.15;;;55.10;;
11427;SDS011;5770;44.504;11.346;2022-12-24T05:34:40;67.03;;;52.88;;
11427;SDS011;5770;44.504;11.346;2022-12-24T05:37:08;67.95;;;53.72;;
11427;SDS011;5770;44.504;11.346;2022-12-24T05:39:35;72.47;;;54.65;;
11427;SDS011;5770;44.504;11.346;2022-12-24T05:42:03;68.20;;;52.78;;
11427;SDS011;5770;44.504;11.346;2022-12-24T05:44:31;65.38;;;53.28;;
11427;SDS011;5770;44.504;11.346;2022-12-24T05:46:58;72.30;;;54.38;;
11427;SDS011;5770;44.504;11.346;2022-12-24T05:49:27;70.07;;;54.58;;
11427;SDS011;5770;44.504;11.346;2022-12-24T05:51:55;65.55;;;52.67;;
11427;SDS011;5770;44.504;11.346;2022-12-24T05:54:22;67.60;;;52.45;;
11427;SDS011;5770;44.504;11.346;2022-12-24T05:56:49;68.45;;;51.47;;
11427;SDS011;5770;44.504;11.346;2022-12-24T05:59:17;65.70;;;52.13;;
11427;SDS011;5770;44.504;11.346;2022-12-24T06:01:44;66.38;;;53.20;;
11427;SDS011;5770;44.504;11.346;2022-12-24T06:04:12;70.00;;;55.38;;
11427;SDS011;5770;44.504;11.346;2022-12-24T06:06:42;70.05;;;54.22;;
11427;SDS011;5770;44.504;11.346;2022-12-24T06:09:10;73.80;;;54.30;;
11427;SDS011;5770;44.504;11.346;2022-12-24T06:11:37;72.18;;;54.05;;
11427;SDS011;5770;44.504;11.346;2022-12-24T06:14:04;69.82;;;54.17;;
11427;SDS011;5770;44.504;11.346;2022-12-24T06:16:31;71.60;;;53.47;;
11427;SDS011;5770;44.504;11.346;2022-12-24T06:18:58;76.22;;;55.25;;
11427;SDS011;5770;44.504;11.346;2022-12-24T06:21:26;73.68;;;55.20;;
11427;SDS011;5770;44.504;11.346;2022-12-24T06:23:55;72.03;;;54.83;;
11427;SDS011;5770;44.504;11.346;2022-12-24T06:26:22;71.53;;;55.03;;
11427;SDS011;5770;44.504;11.346;2022-12-24T06:28:49;73.13;;;55.13;;
11427;SDS011;5770;44.504;11.346;2022-12-24T06:31:17;75.38;;;56.90;;
11427;SDS011;5770;44.504;11.346;2022-12-24T06:33:45;74.97;;;56.72;;
11427;SDS011;5770;44.504;11.346;2022-12-24T06:36:13;75.78;;;57.22;;
11427;SDS011;5770;44.504;11.346;2022-12-24T06:38:42;75.82;;;57.30;;
11427;SDS011;5770;44.504;11.346;2022-12-24T06:41:11;77.55;;;58.50;;
11427;SDS011;5770;44.504;11.346;2022-12-24T06:43:39;74.72;;;58.55;;
11427;SDS011;5770;44.504;11.346;2022-12-24T06:46:09;71.78;;;56.65;;
11427;SDS011;5770;44.504;11.346;2022-12-24T06:48:36;76.13;;;59.13;;
11427;SDS011;5770;44.504;11.346;2022-12-24T06:51:04;79.57;;;58.50;;
11427;SDS011;5770;44.504;11.346;2022-12-24T06:53:31;76.70;;;56.60;;
11427;SDS011;5770;44.504;11.346;2022-12-24T06:56:01;80.25;;;60.28;;
11427;SDS011;5770;44.504;11.346;2022-12-24T06:58:30;76.50;;;60.35;;
11427;SDS011;5770;44.504;11.346;2022-12-24T07:00:59;82.85;;;62.13;;
11427;SDS011;5770;44.504;11.346;2022-12-24T07:03:27;82.68;;;62.50;;
11427;SDS011;5770;44.504;11.346;2022-12-24T07:05:54;79.65;;;60.17;;
11427;SDS011;5770;44.504;11.346;2022-12-24T07:08:22;78.07;;;58.63;;
11427;SDS011;5770;44.504;11.346;2022-12-24T07:10:49;84.13;;;59.15;;
11427;SDS011;5770;44.504;11.346;2022-12-24T07:13:17;79.90;;;59.45;;
11427;SDS011;5770;44.504;11.346;2022-12-24T07:15:46;78.00;;;58.88;;
11427;SDS011;5770;44.504;11.346;2022-12-24T07:18:13;80.70;;;59.00;;
11427;SDS011;5770;44.504;11.346;2022-12-24T07:20:43;82.13;;;58.83;;
11427;SDS011;5770;44.504;11.346;2022-12-24T07:23:10;78.28;;;59.95;;
11427;SDS011;5770;44.504;11.346;2022-12-24T07:25:40;82.65;;;60.25;;
11427;SDS011;5770;44.504;11.346;2022-12-24T07:28:07;75.00;;;57.15;;
11427;SDS011;5770;44.504;11.346;2022-12-24T07:30:35;78.15;;;57.88;;
11427;SDS011;5770;44.504;11.346;2022-12-24T07:33:04;85.68;;;58.92;;
11427;SDS011;5770;44.504;11.346;2022-12-24T07:35:31;78.35;;;59.00;;
11427;SDS011;5770;44.504;11.346;2022-12-24T07:37:58;77.47;;;59.13;;
11427;SDS011;5770;44.504;11.346;2022-12-24T07:40:29;82.57;;;57.90;;
11427;SDS011;5770;44.504;11.346;2022-12-24T07:43:00;80.32;;;59.40;;
11427;SDS011;5770;44.504;11.346;2022-12-24T07:45:28;79.90;;;58.53;;
11427;SDS011;5770;44.504;11.346;2022-12-24T07:47:55;78.00;;;59.42;;
11427;SDS011;5770;44.504;11.346;2022-12-24T07:50:24;83.88;;;58.00;;
11427;SDS011;5770;44.504;11.346;2022-12-24T07:52:54;82.20;;;57.42;;
11427;SDS011;5770;44.504;11.346;2022-12-24T07:55:21;74.22;;;54.95;;
11427;SDS011;5770;44.504;11.346;2022-12-24T07:57:49;74.03;;;55.22;;
11427;SDS011;5770;44.504;11.346;2022-12-24T08:00:16;78.78;;;56.58;;
11427;SDS011;5770;44.504;11.346;2022-12-24T08:02:46;78.55;;;56.70;;
11427;SDS011;5770;44.504;11.346;2022-12-24T08:05:13;73.60;;;55.08;;
11427;SDS011;5770;44.504;11.346;2022-12-24T08:07:44;79.07;;;56.65;;
11427;SDS011;5770;44.504;11.346;2022-12-24T08:10:12;77.53;;;57.08;;
11427;SDS011;5770;44.504;11.346;2022-12-24T08:12:39;77.78;;;54.88;;
11427;SDS011;5770;44.504;11.346;2022-12-24T08:15:07;73.55;;;53.25;;
11427;SDS011;5770;44.504;11.346;2022-12-24T08:17:37;74.22;;;54.67;;
11427;SDS011;5770;44.504;11.346;2022-12-24T08:20:07;72.30;;;53.28;;
11427;SDS011;5770;44.504;11.346;2022-12-24T08:22:35;80.43;;;58.38;;
11427;SDS011;5770;44.504;11.346;2022-12-24T08:25:07;78.47;;;56.25;;
11427;SDS011;5770;44.504;11.346;2022-12-24T08:27:38;76.97;;;53.95;;
11427;SDS011;5770;44.504;11.346;2022-12-24T08:30:05;78.80;;;55.13;;
11427;SDS011;5770;44.504;11.346;2022-12-24T08:32:33;83.80;;;53.33;;
11427;SDS011;5770;44.504;11.346;2022-12-24T08:35:02;76.55;;;54.83;;
11427;SDS011;5770;44.504;11.346;2022-12-24T08:37:30;71.13;;;53.85;;
11427;SDS011;5770;44.504;11.346;2022-12-24T08:39:58;80.63;;;55.03;;
11427;SDS011;5770;44.504;11.346;2022-12-24T08:42:26;73.15;;;52.13;;
11427;SDS011;5770;44.504;11.346;2022-12-24T08:44:53;75.65;;;53.00;;
11427;SDS011;5770;44.504;11.346;2022-12-24T08:47:21;75.28;;;53.05;;
11427;SDS011;5770;44.504;11.346;2022-12-24T08:49:48;75.38;;;51.67;;
11427;SDS011;5770;44.504;11.346;2022-12-24T08:52:15;73.18;;;52.42;;
11427;SDS011;5770;44.504;11.346;2022-12-24T08:54:42;73.20;;;51.55;;
11427;SDS011;5770;44.504;11.346;2022-12-24T08:57:09;78.10;;;54.00;;
11427;SDS011;5770;44.504;11.346;2022-12-24T08:59:39;78.20;;;54.83;;
11427;SDS011;5770;44.504;11.346;2022-12-24T09:02:07;80.28;;;56.25;;
11427;SDS011;5770;44.504;11.346;2022-12-24T09:04:36;81.03;;;57.13;;
11427;SDS011;5770;44.504;11.346;2022-12-24T09:07:04;77.57;;;60.15;;
11427;SDS011;5770;44.504;11.346;2022-12-24T09:09:31;82.95;;;60.08;;
11427;SDS011;5770;44.504;11.346;2022-12-24T09:11:58;80.50;;;60.58;;
11427;SDS011;5770;44.504;11.346;2022-12-24T09:14:26;78.15;;;61.00;;
11427;SDS011;5770;44.504;11.346;2022-12-24T09:16:54;77.22;;;60.95;;
11427;SDS011;5770;44.504;11.346;2022-12-24T09:19:21;78.53;;;60.05;;
11427;SDS011;5770;44.504;11.346;2022-12-24T09:21:49;82.32;;;61.65;;
11427;SDS011;5770;44.504;11.346;2022-12-24T09:24:16;77.90;;;62.50;;
11427;SDS011;5770;44.504;11.346;2022-12-24T09:26:43;82.22;;;61.65;;
11427;SDS011;5770;44.504;11.346;2022-12-24T09:29:13;74.28;;;60.78;;
11427;SDS011;5770;44.504;11.346;2022-12-24T09:31:40;75.70;;;61.97;;
11427;SDS011;5770;44.504;11.346;2022-12-24T09:34:09;80.28;;;63.78;;
11427;SDS011;5770;44.504;11.346;2022-12-24T09:36:36;84.78;;;63.40;;
11427;SDS011;5770;44.504;11.346;2022-12-24T09:39:03;82.35;;;61.70;;
11427;SDS011;5770;44.504;11.346;2022-12-24T09:41:37;79.03;;;61.80;;
11427;SDS011;5770;44.504;11.346;2022-12-24T09:44:19;83.80;;;62.33;;
11427;SDS011;5770;44.504;11.346;2022-12-24T09:46:46;82.43;;;65.07;;
11427;SDS011;5770;44.504;11.346;2022-12-24T09:49:18;84.35;;;63.10;;
11427;SDS011;5770;44.504;11.346;2022-12-24T09:51:48;79.50;;;64.03;;
11427;SDS011;5770;44.504;11.346;2022-12-24T09:54:18;79.55;;;62.83;;
11427;SDS011;5770;44.504;11.346;2022-12-24T09:56:49;82.05;;;63.00;;
11427;SDS011;5770;44.504;11.346;2022-12-24T09:59:18;91.13;;;63.35;;
11427;SDS011;5770;44.504;11.346;2022-12-24T10:01:48;86.38;;;62.15;;
11427;SDS011;5770;44.504;11.346;2022-12-24T10:04:19;87.53;;;63.05;;
11427;SDS011;5770;44.504;11.346;2022-12-24T10:06:49;86.63;;;62.03;;
11427;SDS011;5770;44.504;11.346;2022-12-24T10:09:23;90.72;;;61.80;;
11427;SDS011;5770;44.504;11.346;2022-12-24T10:11:59;82.68;;;61.58;;
11427;SDS011;5770;44.504;11.346;2022-12-24T10:14:37;83.10;;;62.25;;
11427;SDS011;5770;44.504;11.346;2022-12-24T10:17:20;85.22;;;60.67;;
11427;SDS011;5770;44.504;11.346;2022-12-24T10:19:53;83.20;;;62.45;;
11427;SDS011;5770;44.504;11.346;2022-12-24T10:22:23;89.30;;;62.08;;
11427;SDS011;5770;44.504;11.346;2022-12-24T10:24:53;84.38;;;60.95;;
11427;SDS011;5770;44.504;11.346;2022-12-24T10:27:29;91.28;;;60.75;;
11427;SDS011;5770;44.504;11.346;2022-12-24T10:30:01;89.88;;;61.70;;
11427;SDS011;5770;44.504;11.346;2022-12-24T10:32:31;86.65;;;61.53;;
11427;SDS011;5770;44.504;11.346;2022-12-24T10:35:03;93.40;;;61.38;;
11427;SDS011;5770;44.504;11.346;2022-12-24T10:37:34;82.80;;;61.85;;
11427;SDS011;5770;44.504;11.346;2022-12-24T10:40:01;83.25;;;60.35;;
11427;SDS011;5770;44.504;11.346;2022-12-24T10:42:32;88.55;;;60.92;;
11427;SDS011;5770;44.504;11.346;2022-12-24T10:45:09;86.07;;;59.55;;
11427;SDS011;5770;44.504;11.346;2022-12-24T10:47:41;85.00;;;59.35;;
11427;SDS011;5770;44.504;11.346;2022-12-24T10:50:14;87.63;;;59.72;;
11427;SDS011;5770;44.504;11.346;2022-12-24T10:52:44;83.95;;;59.03;;
11427;SDS011;5770;44.504;11.346;2022-12-24T10:55:20;86.40;;;59.22;;
11427;SDS011;5770;44.504;11.346;2022-12-24T10:57:55;85.97;;;58.95;;
11427;SDS011;5770;44.504;11.346;2022-12-24T11:00:24;84.38;;;58.67;;
11427;SDS011;5770;44.504;11.346;2022-12-24T11:03:04;87.45;;;58.92;;
11427;SDS011;5770;44.504;11.346;2022-12-24T11:05:35;79.78;;;55.85;;
11427;SDS011;5770;44.504;11.346;2022-12-24T11:08:03;83.75;;;57.97;;
11427;SDS011;5770;44.504;11.346;2022-12-24T11:10:33;86.07;;;59.65;;
11427;SDS011;5770;44.504;11.346;2022-12-24T11:13:05;80.95;;;56.90;;
11427;SDS011;5770;44.504;11.346;2022-12-24T11:15:47;79.88;;;55.35;;
11427;SDS011;5770;44.504;11.346;2022-12-24T11:18:24;79.10;;;54.50;;
11427;SDS011;5770;44.504;11.346;2022-12-24T11:20:53;73.78;;;52.90;;
11427;SDS011;5770;44.504;11.346;2022-12-24T11:23:23;81.93;;;55.20;;
11427;SDS011;5770;44.504;11.346;2022-12-24T11:25:50;76.32;;;54.75;;
11427;SDS011;5770;44.504;11.346;2022-12-24T11:28:20;77.75;;;54.55;;
11427;SDS011;5770;44.504;11.346;2022-12-24T11:30:59;74.18;;;54.88;;
11427;SDS011;5770;44.504;11.346;2022-12-24T11:33:27;73.93;;;53.97;;
11427;SDS011;5770;44.504;11.346;2022-12-24T11:35:59;82.68;;;56.28;;
11427;SDS011;5770;44.504;11.346;2022-12-24T11:38:27;78.03;;;53.28;;
11427;SDS011;5770;44.504;11.346;2022-12-24T11:40:58;73.32;;;53.47;;
11427;SDS011;5770;44.504;11.346;2022-12-24T11:43:32;73.47;;;52.33;;
11427;SDS011;5770;44.504;11.346;2022-12-24T11:46:34;77.40;;;54.35;;
11427;SDS011;5770;44.504;11.346;2022-12-24T11:49:14;78.07;;;55.22;;
11427;SDS011;5770;44.504;11.346;2022-12-24T11:54:44;80.97;;;54.88;;
11427;SDS011;5770;44.504;11.346;2022-12-24T11:57:15;75.82;;;53.25;;
11427;SDS011;5770;44.504;11.346;2022-12-24T11:59:43;77.28;;;53.28;;
11427;SDS011;5770;44.504;11.346;2022-12-24T12:02:14;73.70;;;53.30;;
11427;SDS011;5770;44.504;11.346;2022-12-24T12:04:47;80.43;;;52.65;;
11427;SDS011;5770;44.504;11.346;2022-12-24T12:07:17;74.20;;;53.10;;
11427;SDS011;5770;44.504;11.346;2022-12-24T12:09:51;87.70;;;61.13;;
11427;SDS011;5770;44.504;11.346;2022-12-24T12:12:23;80.50;;;58.60;;
11427;SDS011;5770;44.504;11.346;2022-12-24T12:14:53;84.40;;;59.65;;
11427;SDS011;5770;44.504;11.346;2022-12-24T12:17:26;89.65;;;60.58;;
11427;SDS011;5770;44.504;11.346;2022-12-24T12:19:56;78.00;;;60.08;;
11427;SDS011;5770;44.504;11.346;2022-12-24T12:22:27;88.60;;;61.90;;
11427;SDS011;5770;44.504;11.346;2022-12-24T12:25:01;86.88;;;61.88;;
11427;SDS011;5770;44.504;11.346;2022-12-24T12:27:33;80.88;;;58.95;;
11427;SDS011;5770;44.504;11.346;2022-12-24T12:30:03;83.30;;;60.97;;
11427;SDS011;5770;44.504;11.346;2022-12-24T12:32:35;84.38;;;61.25;;
11427;SDS011;5770;44.504;11.346;2022-12-24T12:35:20;95.05;;;63.03;;
11427;SDS011;5770;44.504;11.346;2022-12-24T12:37:54;84.88;;;61.65;;
11427;SDS011;5770;44.504;11.346;2022-12-24T12:40:28;80.20;;;60.63;;
11427;SDS011;5770;44.504;11.346;2022-12-24T12:43:00;86.78;;;62.65;;
11427;SDS011;5770;44.504;11.346;2022-12-24T12:45:37;86.55;;;61.45;;
11427;SDS011;5770;44.504;11.346;2022-12-24T12:51:07;92.15;;;63.22;;
11427;SDS011;5770;44.504;11.346;2022-12-24T12:53:41;95.90;;;62.72;;
11427;SDS011;5770;44.504;11.346;2022-12-24T12:56:15;82.55;;;60.85;;
11427;SDS011;5770;44.504;11.346;2022-12-24T12:58:48;95.65;;;64.22;;
11427;SDS011;5770;44.504;11.346;2022-12-24T13:01:19;98.38;;;65.13;;
11427;SDS011;5770;44.504;11.346;2022-12-24T13:04:04;101.22;;;66.10;;
11427;SDS011;5770;44.504;11.346;2022-12-24T13:06:55;105.43;;;64.25;;
11427;SDS011;5770;44.504;11.346;2022-12-24T13:10:01;99.35;;;66.78;;
11427;SDS011;5770;44.504;11.346;2022-12-24T13:12:55;100.80;;;65.05;;
11427;SDS011;5770;44.504;11.346;2022-12-24T13:18:47;98.75;;;66.32;;
11427;SDS011;5770;44.504;11.346;2022-12-24T13:21:24;102.43;;;66.95;;
11427;SDS011;5770;44.504;11.346;2022-12-24T13:24:03;105.03;;;67.80;;
11427;SDS011;5770;44.504;11.346;2022-12-24T13:26:31;105.05;;;66.47;;
11427;SDS011;5770;44.504;11.346;2022-12-24T13:40:50;107.82;;;70.70;;
11427;SDS011;5770;44.504;11.346;2022-12-24T13:43:17;110.20;;;71.15;;
11427;SDS011;5770;44.504;11.346;2022-12-24T13:45:48;101.88;;;68.22;;
11427;SDS011;5770;44.504;11.346;2022-12-24T13:48:19;103.47;;;68.15;;
11427;SDS011;5770;44.504;11.346;2022-12-24T13:50:48;107.80;;;70.25;;
11427;SDS011;5770;44.504;11.346;2022-12-24T13:53:19;105.15;;;70.72;;
11427;SDS011;5770;44.504;11.346;2022-12-24T13:55:49;118.00;;;68.40;;
11427;SDS011;5770;44.504;11.346;2022-12-24T13:58:17;103.90;;;67.75;;
11427;SDS011;5770;44.504;11.346;2022-12-24T14:00:56;105.28;;;70.35;;
11427;SDS011;5770;44.504;11.346;2022-12-24T14:03:27;106.07;;;67.68;;
11427;SDS011;5770;44.504;11.346;2022-12-24T14:05:57;103.93;;;69.35;;
11427;SDS011;5770;44.504;11.346;2022-12-24T14:08:31;99.43;;;66.82;;
11427;SDS011;5770;44.504;11.346;2022-12-24T14:11:05;103.45;;;69.10;;
11427;SDS011;5770;44.504;11.346;2022-12-24T14:16:20;110.07;;;70.22;;
11427;SDS011;5770;44.504;11.346;2022-12-24T14:18:56;110.05;;;71.22;;
11427;SDS011;5770;44.504;11.346;2022-12-24T14:21:25;106.43;;;70.40;;
11427;SDS011;5770;44.504;11.346;2022-12-24T14:23:56;101.95;;;69.55;;
11427;SDS011;5770;44.504;11.346;2022-12-24T14:26:27;107.15;;;67.53;;
11427;SDS011;5770;44.504;11.346;2022-12-24T14:28:58;99.75;;;66.85;;
11427;SDS011;5770;44.504;11.346;2022-12-24T14:31:28;103.38;;;67.32;;
11427;SDS011;5770;44.504;11.346;2022-12-24T14:34:04;106.93;;;68.93;;
11427;SDS011;5770;44.504;11.346;2022-12-24T14:36:32;101.00;;;66.25;;
11427;SDS011;5770;44.504;11.346;2022-12-24T14:38:59;109.75;;;67.45;;
11427;SDS011;5770;44.504;11.346;2022-12-24T14:41:30;101.32;;;70.07;;
11427;SDS011;5770;44.504;11.346;2022-12-24T14:44:07;106.72;;;68.22;;
11427;SDS011;5770;44.504;11.346;2022-12-24T14:46:43;98.75;;;66.50;;
11427;SDS011;5770;44.504;11.346;2022-12-24T14:49:17;98.55;;;65.93;;
11427;SDS011;5770;44.504;11.346;2022-12-24T14:51:49;104.90;;;67.10;;
11427;SDS011;5770;44.504;11.346;2022-12-24T14:54:30;105.43;;;66.80;;
11427;SDS011;5770;44.504;11.346;2022-12-24T14:57:14;110.03;;;67.05;;
11427;SDS011;5770;44.504;11.346;2022-12-24T14:59:46;114.70;;;68.70;;
11427;SDS011;5770;44.504;11.346;2022-12-24T15:02:23;120.55;;;69.78;;
11427;SDS011;5770;44.504;11.346;2022-12-24T15:05:05;108.72;;;67.45;;